Time;durP1;ratioP1;P1;durP2;ratioP2;P2;SDS_P1;SDS_P2;PMS_P1;PMS_P2;Temp;Humidity;BMP_temperature;BMP_pressure;BME280_temperature;BME280_humidity;BME280_pressure;Samples;Min_cycle;Max_cycle;Signal;HPM_P1;HPM_P2
2024/01/19 00:02:24;;;;;;;25.23;10.93;;;;;;;-4.03;100.00;100262.16;4967336;28;20232;-66
2024/01/19 00:04:50;;;;;;;11.57;4.53;;;;;;;-3.93;100.00;100267.19;4966068;28;21023;-69
2024/01/19 00:07:17;;;;;;;8.20;4.00;;;;;;;-4.01;100.00;100269.22;4968033;28;20976;-68
2024/01/19 00:09:43;;;;;;;6.60;3.07;;;;;;;-4.03;100.00;100273.41;4970501;28;20474;-69
2024/01/19 00:12:09;;;;;;;7.20;3.70;;;;;;;-4.11;100.00;100270.28;4972795;28;20487;-67
2024/01/19 00:14:36;;;;;;;7.10;3.40;;;;;;;-4.32;100.00;100271.41;4967482;28;20463;-68
2024/01/19 00:17:02;;;;;;;6.17;3.60;;;;;;;-4.41;100.00;100273.31;4971250;28;20476;-68
2024/01/19 00:19:29;;;;;;;4.90;2.93;;;;;;;-4.46;100.00;100296.25;4968666;28;20460;-68
2024/01/19 00:21:55;;;;;;;6.47;3.53;;;;;;;-4.60;100.00;100293.50;4970974;28;21086;-66
2024/01/19 00:24:21;;;;;;;5.97;2.63;;;;;;;-4.78;100.00;100285.34;4967181;28;20488;-68
2024/01/19 00:26:48;;;;;;;22.23;10.23;;;;;;;-4.87;100.00;100293.31;4965403;28;21053;-69
2024/01/19 00:29:14;;;;;;;6.60;3.50;;;;;;;-4.80;100.00;100297.25;4969114;28;20472;-67
2024/01/19 00:31:45;;;;;;;8.30;3.40;;;;;;;-4.89;100.00;100297.47;4970395;28;20503;-68
2024/01/19 00:34:15;;;;;;;3.97;2.50;;;;;;;-4.85;100.00;100308.91;4967737;28;20465;-66
2024/01/19 00:36:42;;;;;;;8.83;3.40;;;;;;;-4.90;100.00;100306.00;4970622;28;20478;-68
2024/01/19 00:39:08;;;;;;;26.07;10.87;;;;;;;-4.87;100.00;100311.38;4966576;28;20491;-69
2024/01/19 00:41:35;;;;;;;20.70;10.47;;;;;;;-4.77;100.00;100311.28;4966945;28;20480;-69
2024/01/19 00:44:02;;;;;;;21.67;10.77;;;;;;;-4.77;100.00;100303.53;4968631;28;20496;-68
2024/01/19 00:46:29;;;;;;;23.97;11.47;;;;;;;-4.79;100.00;100315.44;4962088;28;20461;-69
2024/01/19 00:48:55;;;;;;;10.57;2.77;;;;;;;-4.52;100.00;100319.09;4957046;28;20486;-66
2024/01/19 00:51:22;;;;;;;3.13;2.40;;;;;;;-4.70;100.00;100304.88;4966733;28;20566;-68
2024/01/19 00:53:51;;;;;;;7.73;3.30;;;;;;;-4.71;100.00;100318.56;4969502;28;20949;-67
2024/01/19 00:56:17;;;;;;;13.03;3.90;;;;;;;-4.77;100.00;100318.13;4964064;28;21057;-67
2024/01/19 00:58:45;;;;;;;23.13;10.80;;;;;;;-4.84;100.00;100328.78;4968618;28;20997;-67
2024/01/19 01:01:12;;;;;;;4.17;2.90;;;;;;;-4.84;100.00;100323.63;4968232;28;20490;-67
2024/01/19 01:03:39;;;;;;;12.83;3.13;;;;;;;-4.87;100.00;100321.72;4964238;28;20504;-68
2024/01/19 01:06:06;;;;;;;6.73;3.23;;;;;;;-4.86;100.00;100325.19;4960731;28;20902;-69
2024/01/19 01:08:37;;;;;;;11.57;4.43;;;;;;;-4.66;100.00;100336.97;4962268;28;20467;-67
2024/01/19 01:11:05;;;;;;;8.30;4.27;;;;;;;-4.78;100.00;100329.25;4968069;28;20702;-67
2024/01/19 01:13:32;;;;;;;26.60;13.13;;;;;;;-4.76;100.00;100343.19;4968149;28;20535;-67
2024/01/19 01:15:59;;;;;;;26.33;12.00;;;;;;;-4.84;100.00;100341.69;4970417;28;20822;-67
2024/01/19 01:18:25;;;;;;;26.37;12.17;;;;;;;-4.76;100.00;100345.75;4957991;28;21037;-68
2024/01/19 01:20:52;;;;;;;25.60;11.60;;;;;;;-4.74;100.00;100352.84;4967125;28;20490;-68
2024/01/19 01:23:19;;;;;;;13.33;4.07;;;;;;;-4.57;100.00;100369.53;4962693;28;20459;-68
2024/01/19 01:25:45;;;;;;;7.67;2.37;;;;;;;-4.37;100.00;100349.41;4964439;28;23082;-67
2024/01/19 01:28:12;;;;;;;5.33;2.90;;;;;;;-3.98;100.00;100365.16;4958793;28;20979;-66
2024/01/19 01:30:40;;;;;;;10.30;3.57;;;;;;;-3.92;100.00;100373.34;4968892;28;20467;-69
2024/01/19 01:33:07;;;;;;;30.33;13.17;;;;;;;-3.76;100.00;100388.22;4967713;28;20552;-66
2024/01/19 01:35:35;;;;;;;25.00;12.03;;;;;;;-4.01;100.00;100382.13;4969827;28;20854;-66
2024/01/19 01:38:03;;;;;;;14.00;2.83;;;;;;;-4.17;100.00;100385.31;4963507;28;20827;-68
2024/01/19 01:40:30;;;;;;;7.67;3.73;;;;;;;-4.10;100.00;100403.97;4969300;28;20461;-69
2024/01/19 01:43:01;;;;;;;27.83;11.70;;;;;;;-4.17;100.00;100404.31;4963785;28;20946;-66
2024/01/19 01:45:27;;;;;;;25.43;11.23;;;;;;;-4.26;100.00;100397.59;4961628;28;21012;-66
2024/01/19 01:47:55;;;;;;;7.13;3.13;;;;;;;-4.38;100.00;100414.81;4969879;28;20467;-67
2024/01/19 01:50:22;;;;;;;5.63;2.80;;;;;;;-4.60;100.00;100409.75;4963021;28;20460;-68
2024/01/19 01:52:51;;;;;;;21.63;10.77;;;;;;;-4.72;100.00;100416.63;4964736;28;20957;-66
2024/01/19 01:55:17;;;;;;;24.10;11.87;;;;;;;-4.83;100.00;100420.97;4964399;28;20473;-65
2024/01/19 01:57:46;;;;;;;24.63;12.40;;;;;;;-4.91;100.00;100420.41;4965324;28;20850;-68
2024/01/19 02:00:14;;;;;;;25.23;11.00;;;;;;;-4.99;100.00;100420.63;4969018;28;20956;-69
2024/01/19 02:02:41;;;;;;;8.67;3.37;;;;;;;-5.06;100.00;100424.44;4965620;28;20557;-67
2024/01/19 02:05:07;;;;;;;22.53;11.37;;;;;;;-5.05;100.00;100429.72;4965066;28;20561;-69
2024/01/19 02:07:34;;;;;;;22.67;10.73;;;;;;;-5.10;100.00;100431.06;4966189;28;20560;-67
2024/01/19 02:10:02;;;;;;;24.90;10.50;;;;;;;-5.11;100.00;100431.84;4964481;28;20459;-67
2024/01/19 02:12:29;;;;;;;24.03;10.73;;;;;;;-4.98;100.00;100438.81;4971539;28;20918;-64
2024/01/19 02:14:56;;;;;;;23.50;11.23;;;;;;;-4.94;100.00;100445.09;4969874;28;20527;-68
2024/01/19 02:17:25;;;;;;;23.17;11.30;;;;;;;-4.95;100.00;100451.94;4965975;28;20461;-67
2024/01/19 02:19:53;;;;;;;25.97;11.60;;;;;;;-5.07;100.00;100445.88;4963463;28;20518;-67
2024/01/19 02:22:20;;;;;;;22.57;10.97;;;;;;;-5.06;100.00;100447.66;4967836;28;20480;-70
2024/01/19 02:24:46;;;;;;;9.57;3.43;;;;;;;-4.98;100.00;100454.31;4961595;28;20519;-69
2024/01/19 02:27:14;;;;;;;24.67;10.27;;;;;;;-5.01;100.00;100455.75;4964380;28;20468;-67
2024/01/19 02:29:49;;;;;;;23.10;10.90;;;;;;;-4.98;100.00;100462.06;4969276;28;20461;-67
2024/01/19 02:32:15;;;;;;;7.27;3.33;;;;;;;-4.84;100.00;100469.13;4963359;28;20520;-67
2024/01/19 02:34:42;;;;;;;7.60;3.57;;;;;;;-4.85;100.00;100469.94;4964221;28;20464;-69
2024/01/19 02:37:08;;;;;;;6.50;3.13;;;;;;;-4.94;100.00;100469.25;4967425;28;20465;-67
2024/01/19 02:39:35;;;;;;;7.87;3.73;;;;;;;-5.00;100.00;100467.88;4963463;28;21032;-67
2024/01/19 02:42:01;;;;;;;24.67;11.90;;;;;;;-4.94;100.00;100463.19;4966677;28;20488;-69
2024/01/19 02:44:27;;;;;;;8.60;3.00;;;;;;;-4.88;100.00;100471.38;4964890;28;21011;-68
2024/01/19 02:46:54;;;;;;;6.97;3.70;;;;;;;-5.02;100.00;100469.44;4959385;28;20570;-67
2024/01/19 02:49:20;;;;;;;11.17;4.70;;;;;;;-5.00;100.00;100478.22;4960876;28;20462;-67
2024/01/19 02:51:47;;;;;;;7.30;3.63;;;;;;;-5.12;100.00;100466.19;4961920;28;20492;-67
2024/01/19 02:54:13;;;;;;;8.80;2.97;;;;;;;-5.18;100.00;100463.13;4967003;28;20976;-67
2024/01/19 02:56:40;;;;;;;5.23;3.60;;;;;;;-5.24;100.00;100470.38;4962156;28;20460;-67
2024/01/19 02:59:07;;;;;;;11.57;3.50;;;;;;;-5.23;100.00;100464.44;4963014;28;20452;-69
2024/01/19 03:01:34;;;;;;;4.63;3.73;;;;;;;-5.28;100.00;100464.88;4966394;28;20483;-67
2024/01/19 03:04:01;;;;;;;8.27;2.90;;;;;;;-5.24;100.00;100462.66;4971402;28;20544;-68
2024/01/19 03:06:27;;;;;;;8.03;3.50;;;;;;;-5.26;100.00;100465.88;4966888;28;20566;-67
2024/01/19 03:08:54;;;;;;;24.17;11.87;;;;;;;-5.38;100.00;100468.44;4968964;28;20903;-66
2024/01/19 03:11:21;;;;;;;5.90;2.53;;;;;;;-5.59;100.00;100459.06;4961829;28;20488;-68
2024/01/19 03:13:49;;;;;;;8.07;2.83;;;;;;;-5.62;100.00;100454.53;4971726;28;20872;-68
2024/01/19 03:16:16;;;;;;;8.37;3.53;;;;;;;-5.52;100.00;100466.47;4963625;28;20459;-67
2024/01/19 03:18:42;;;;;;;14.53;3.43;;;;;;;-5.51;100.00;100466.59;4972573;28;20958;-66
2024/01/19 03:21:09;;;;;;;5.53;2.67;;;;;;;-5.38;100.00;100465.84;4967856;28;20488;-67
2024/01/19 03:23:35;;;;;;;23.73;10.00;;;;;;;-5.44;100.00;100468.88;4969962;28;20452;-67
2024/01/19 03:26:01;;;;;;;5.77;2.73;;;;;;;-5.72;100.00;100445.19;4966096;28;20480;-68
2024/01/19 03:28:28;;;;;;;10.33;2.67;;;;;;;-5.72;100.00;100465.81;4968327;28;20462;-67
2024/01/19 03:30:54;;;;;;;12.57;3.90;;;;;;;-5.79;100.00;100460.06;4966163;28;21006;-67
2024/01/19 03:33:21;;;;;;;8.67;2.60;;;;;;;-5.86;100.00;100465.53;4969464;28;20464;-69
2024/01/19 03:35:47;;;;;;;6.93;3.03;;;;;;;-5.77;100.00;100480.03;4966530;28;20963;-67
2024/01/19 03:38:14;;;;;;;21.93;10.23;;;;;;;-5.34;100.00;100500.53;4971268;28;20460;-67
2024/01/19 03:40:40;;;;;;;8.10;2.87;;;;;;;-5.34;100.00;100491.13;4972059;28;20443;-66
2024/01/19 03:43:07;;;;;;;3.57;2.20;;;;;;;-5.33;100.00;100490.34;4966271;28;20467;-68
2024/01/19 03:45:33;;;;;;;4.07;2.70;;;;;;;-5.43;100.00;100500.72;4968706;28;20575;-68
2024/01/19 03:48:00;;;;;;;4.57;2.20;;;;;;;-5.64;100.00;100501.63;4965561;28;20961;-68
2024/01/19 03:50:27;;;;;;;9.03;3.30;;;;;;;-5.86;100.00;100499.94;4968205;28;20492;-67
2024/01/19 03:52:53;;;;;;;3.57;2.30;;;;;;;-5.90;100.00;100510.81;4965189;28;20857;-69
2024/01/19 03:55:20;;;;;;;6.90;3.03;;;;;;;-5.99;100.00;100504.94;4967381;28;20450;-67
2024/01/19 03:57:46;;;;;;;7.23;3.10;;;;;;;-6.08;100.00;100502.50;4967931;28;20536;-66
2024/01/19 04:00:13;;;;;;;6.30;3.00;;;;;;;-6.20;100.00;100506.69;4969286;28;20457;-67
2024/01/19 04:02:39;;;;;;;7.97;2.60;;;;;;;-6.29;100.00;100498.22;4967101;28;20478;-68
2024/01/19 04:05:06;;;;;;;15.90;3.80;;;;;;;-6.07;100.00;100518.88;4968984;28;20951;-70
2024/01/19 04:07:32;;;;;;;11.00;3.10;;;;;;;-6.05;100.00;100514.72;4963050;28;20550;-66
2024/01/19 04:09:59;;;;;;;7.57;2.70;;;;;;;-6.01;100.00;100530.56;4964770;28;20468;-67
2024/01/19 04:12:25;;;;;;;9.07;3.20;;;;;;;-6.02;100.00;100535.59;4975362;28;20468;-68
2024/01/19 04:14:51;;;;;;;6.90;2.33;;;;;;;-6.12;100.00;100525.34;4964744;28;21564;-68
2024/01/19 04:17:18;;;;;;;24.63;10.97;;;;;;;-6.08;100.00;100538.59;4966440;28;20456;-68
2024/01/19 04:19:44;;;;;;;9.93;2.73;;;;;;;-6.04;100.00;100534.56;4966817;28;20898;-67
2024/01/19 04:22:11;;;;;;;23.73;10.67;;;;;;;-6.13;100.00;100542.47;4967012;28;20523;-68
2024/01/19 04:24:37;;;;;;;23.73;11.00;;;;;;;-6.24;100.00;100540.72;4970887;28;20454;-68
2024/01/19 04:27:04;;;;;;;21.13;10.00;;;;;;;-6.25;100.00;100556.03;4967763;28;20469;-68
2024/01/19 04:29:31;;;;;;;20.70;10.23;;;;;;;-6.26;100.00;100539.69;4968595;28;20485;-67
2024/01/19 04:31:58;;;;;;;7.37;2.43;;;;;;;-6.24;100.00;100552.69;4967278;28;20832;-67
2024/01/19 04:34:24;;;;;;;5.57;2.20;;;;;;;-6.32;100.00;100550.41;4970028;28;20457;-70
2024/01/19 04:36:51;;;;;;;6.53;2.60;;;;;;;-6.27;100.00;100562.75;4965484;28;20460;-67
2024/01/19 04:39:17;;;;;;;5.40;2.63;;;;;;;-6.35;100.00;100550.16;4963211;28;20453;-67
2024/01/19 04:41:43;;;;;;;16.43;2.67;;;;;;;-6.11;100.00;100556.38;4969315;28;20457;-67
2024/01/19 04:44:10;;;;;;;6.87;2.83;;;;;;;-6.10;100.00;100550.44;4970026;28;20442;-69
2024/01/19 04:46:37;;;;;;;5.33;2.93;;;;;;;-6.07;100.00;100554.94;4970252;28;20854;-67
2024/01/19 04:49:06;;;;;;;9.30;2.73;;;;;;;-6.08;100.00;100556.63;4968253;28;20456;-67
2024/01/19 04:51:32;;;;;;;7.77;3.43;;;;;;;-6.14;100.00;100553.56;4969607;28;20490;-68
2024/01/19 04:53:59;;;;;;;19.70;9.50;;;;;;;-6.27;100.00;100549.88;4965643;28;20584;-68
2024/01/19 04:56:26;;;;;;;23.03;9.67;;;;;;;-6.24;100.00;100571.63;4964721;28;20524;-67
2024/01/19 04:58:52;;;;;;;5.77;2.23;;;;;;;-6.10;100.00;100571.06;4969840;28;20465;-68
2024/01/19 05:01:19;;;;;;;3.60;2.23;;;;;;;-6.23;100.00;100575.09;4963179;28;20483;-69
2024/01/19 05:03:45;;;;;;;3.33;2.60;;;;;;;-6.18;100.00;100579.84;4965697;28;20472;-69
2024/01/19 05:06:13;;;;;;;6.73;2.73;;;;;;;-6.26;100.00;100574.88;4967802;28;21067;-68
2024/01/19 05:08:42;;;;;;;4.03;2.70;;;;;;;-6.19;100.00;100582.31;4965531;28;20504;-68
2024/01/19 05:11:13;;;;;;;4.17;2.37;;;;;;;-6.21;100.00;100581.28;4966794;28;20505;-68
2024/01/19 05:13:41;;;;;;;8.20;2.90;;;;;;;-6.20;100.00;100580.50;4969667;28;20468;-66
2024/01/19 05:16:08;;;;;;;3.50;2.53;;;;;;;-6.14;100.00;100586.16;4964955;28;20453;-68
2024/01/19 05:18:34;;;;;;;18.40;3.47;;;;;;;-6.20;100.00;100589.16;4966475;28;20539;-67
2024/01/19 05:21:01;;;;;;;6.83;3.03;;;;;;;-6.30;100.00;100596.91;4967982;28;20555;-70
2024/01/19 05:23:29;;;;;;;8.83;3.63;;;;;;;-6.18;100.00;100600.47;4966074;28;20492;-67
2024/01/19 05:25:55;;;;;;;3.40;2.40;;;;;;;-6.25;100.00;100599.84;4965347;28;20551;-69
2024/01/19 05:28:22;;;;;;;4.70;2.90;;;;;;;-6.33;100.00;100610.44;4965404;28;20828;-68
2024/01/19 05:30:48;;;;;;;5.47;2.70;;;;;;;-6.37;100.00;100620.34;4961313;28;20476;-67
2024/01/19 05:33:15;;;;;;;5.63;2.90;;;;;;;-6.47;100.00;100628.06;4965208;28;20457;-69
2024/01/19 05:35:42;;;;;;;5.37;2.57;;;;;;;-6.49;100.00;100612.47;4966988;28;20449;-67
2024/01/19 05:38:08;;;;;;;4.77;2.67;;;;;;;-6.51;100.00;100616.59;4964696;28;20465;-66
2024/01/19 05:40:35;;;;;;;4.87;2.73;;;;;;;-6.53;100.00;100617.25;4967035;28;20465;-68
2024/01/19 05:43:01;;;;;;;4.57;2.27;;;;;;;-6.57;100.00;100628.06;4965658;28;20519;-68
2024/01/19 05:45:27;;;;;;;4.80;2.97;;;;;;;-6.60;100.00;100621.00;4966677;28;20488;-67
2024/01/19 05:47:54;;;;;;;7.07;2.50;;;;;;;-6.76;100.00;100607.63;4968839;28;20461;-66
2024/01/19 05:50:20;;;;;;;6.17;3.30;;;;;;;-6.64;100.00;100637.88;4970152;28;20495;-66
2024/01/19 05:52:47;;;;;;;5.33;3.37;;;;;;;-6.65;100.00;100645.47;4965103;28;20980;-67
2024/01/19 05:55:13;;;;;;;6.07;2.27;;;;;;;-6.61;100.00;100644.03;4969382;28;20480;-67
2024/01/19 05:57:40;;;;;;;7.53;2.80;;;;;;;-6.64;100.00;100640.44;4964923;28;20488;-69
2024/01/19 06:00:07;;;;;;;6.00;2.77;;;;;;;-6.70;100.00;100646.75;4965186;28;20445;-68
2024/01/19 06:02:33;;;;;;;12.30;2.60;;;;;;;-6.73;100.00;100656.78;4975217;28;20480;-67
2024/01/19 06:05:00;;;;;;;6.00;2.63;;;;;;;-6.69;100.00;100666.56;4970419;28;20465;-67
2024/01/19 06:07:26;;;;;;;17.80;7.53;;;;;;;-6.68;100.00;100676.09;4967111;28;20577;-70
2024/01/19 06:09:53;;;;;;;20.83;10.73;;;;;;;-6.78;100.00;100660.66;4967756;28;20973;-68
2024/01/19 06:12:19;;;;;;;5.50;3.03;;;;;;;-6.64;100.00;100691.03;4969279;28;20461;-65
2024/01/19 06:14:45;;;;;;;8.13;3.87;;;;;;;-6.64;100.00;100689.38;4968336;28;20474;-67
2024/01/19 06:17:15;;;;;;;25.23;10.20;;;;;;;-6.59;100.00;100694.91;4965490;28;20452;-67
2024/01/19 06:19:41;;;;;;;12.23;3.60;;;;;;;-6.69;100.00;100694.91;4964402;28;21042;-68
2024/01/19 06:22:08;;;;;;;6.63;2.80;;;;;;;-6.76;100.00;100692.56;4960896;28;20909;-67
2024/01/19 06:24:36;;;;;;;6.53;3.03;;;;;;;-6.67;100.00;100707.13;4966424;28;20452;-67
2024/01/19 06:27:03;;;;;;;6.93;2.90;;;;;;;-6.69;100.00;100718.06;4967682;28;20709;-67
2024/01/19 06:29:30;;;;;;;6.87;3.67;;;;;;;-6.66;100.00;100716.66;4967853;28;20908;-68
2024/01/19 06:31:56;;;;;;;10.00;3.50;;;;;;;-6.75;100.00;100714.97;4968827;28;20545;-67
2024/01/19 06:34:22;;;;;;;7.03;2.83;;;;;;;-6.76;100.00;100726.94;4964782;28;20474;-68
2024/01/19 06:36:49;;;;;;;9.03;3.20;;;;;;;-6.73;100.00;100718.59;4968324;28;20515;-68
2024/01/19 06:39:15;;;;;;;6.53;4.10;;;;;;;-6.70;100.00;100729.16;4970262;28;20457;-68
2024/01/19 06:41:43;;;;;;;12.43;4.87;;;;;;;-6.53;100.00;100738.31;4963959;28;20560;-68
2024/01/19 06:44:13;;;;;;;16.23;4.87;;;;;;;-6.63;100.00;100731.47;4961553;28;20484;-66
2024/01/19 06:46:46;;;;;;;6.00;3.40;;;;;;;-6.59;100.00;100741.25;4971716;28;20583;-65
2024/01/19 06:49:13;;;;;;;26.37;12.30;;;;;;;-6.66;100.00;100751.81;4966710;28;21146;-68
2024/01/19 06:51:40;;;;;;;8.60;4.17;;;;;;;-6.67;100.00;100750.00;4970313;28;20466;-67
2024/01/19 06:54:07;;;;;;;8.17;3.77;;;;;;;-6.71;100.00;100755.66;4972165;28;20825;-68
2024/01/19 06:56:34;;;;;;;10.63;2.83;;;;;;;-6.69;100.00;100761.84;4967864;28;20476;-66
2024/01/19 06:59:01;;;;;;;6.83;2.60;;;;;;;-6.76;100.00;100752.69;4973752;28;20829;-67
2024/01/19 07:01:27;;;;;;;11.33;2.97;;;;;;;-6.61;100.00;100773.72;4964871;28;20893;-67
2024/01/19 07:03:53;;;;;;;26.97;11.50;;;;;;;-6.59;100.00;100785.06;4971174;28;20456;-68
2024/01/19 07:06:20;;;;;;;11.83;4.10;;;;;;;-6.40;100.00;100782.41;4962751;28;20476;-67
2024/01/19 07:08:46;;;;;;;29.13;11.53;;;;;;;-6.47;100.00;100773.22;4969227;28;20491;-69
2024/01/19 07:11:13;;;;;;;28.83;11.20;;;;;;;-6.31;100.00;100801.22;4971918;28;20472;-68
2024/01/19 07:13:41;;;;;;;12.57;4.07;;;;;;;-6.24;100.00;100803.56;4972509;28;20567;-68
2024/01/19 07:16:08;;;;;;;11.93;3.90;;;;;;;-6.20;100.00;100797.88;4971790;28;20539;-68
2024/01/19 07:18:36;;;;;;;5.07;3.07;;;;;;;-6.05;100.00;100809.50;4961580;28;20831;-69
2024/01/19 07:21:03;;;;;;;5.73;2.97;;;;;;;-5.81;100.00;100812.31;4968019;28;20482;-65
2024/01/19 07:23:30;;;;;;;10.17;4.00;;;;;;;-5.40;100.00;100826.09;4970900;28;21011;-67
2024/01/19 07:25:57;;;;;;;24.50;12.43;;;;;;;-5.21;100.00;100824.25;4972896;28;20579;-67
2024/01/19 07:28:24;;;;;;;5.50;3.57;;;;;;;-5.04;100.00;100812.75;4969383;28;20452;-70
2024/01/19 07:30:50;;;;;;;26.10;12.10;;;;;;;-4.80;100.00;100812.16;4976651;28;20993;-68
2024/01/19 07:33:17;;;;;;;30.43;13.30;;;;;;;-4.68;100.00;100816.50;4972964;28;20753;-68
2024/01/19 07:35:57;;;;;;;11.27;3.67;;;;;;;-4.61;100.00;100821.34;4970292;28;20453;-67
2024/01/19 07:38:23;;;;;;;5.97;3.27;;;;;;;-4.53;100.00;100816.00;4970515;28;20823;-68
2024/01/19 07:40:50;;;;;;;10.57;3.93;;;;;;;-4.39;100.00;100819.72;4969455;28;20852;-71
2024/01/19 07:43:16;;;;;;;8.20;4.10;;;;;;;-4.21;100.00;100820.25;4968397;28;20459;-70
2024/01/19 07:45:43;;;;;;;7.90;3.13;;;;;;;-4.05;100.00;100831.00;4970974;28;20555;-68
2024/01/19 07:48:12;;;;;;;7.03;3.77;;;;;;;-4.04;100.00;100831.88;4970764;28;20468;-68
2024/01/19 07:50:38;;;;;;;4.13;3.17;;;;;;;-3.94;100.00;100844.78;4971741;28;20441;-67
2024/01/19 07:53:04;;;;;;;5.70;3.27;;;;;;;-3.90;100.00;100839.97;4972012;28;20973;-68
2024/01/19 07:55:31;;;;;;;6.50;3.53;;;;;;;-3.82;100.00;100841.44;4973237;28;20964;-68
2024/01/19 07:57:57;;;;;;;11.73;5.53;;;;;;;-3.71;100.00;100856.88;4969038;28;20980;-65
2024/01/19 08:00:25;;;;;;;9.37;3.73;;;;;;;-3.71;100.00;100852.63;4974568;28;20956;-67
2024/01/19 08:02:51;;;;;;;10.50;5.00;;;;;;;-3.61;100.00;100842.19;4971665;28;20933;-67
2024/01/19 08:05:18;;;;;;;11.87;4.83;;;;;;;-3.57;100.00;100843.34;4969830;28;20448;-68
2024/01/19 08:07:44;;;;;;;10.33;4.50;;;;;;;-3.62;100.00;100848.13;4966181;28;20476;-66
2024/01/19 08:10:11;;;;;;;7.63;3.97;;;;;;;-3.56;100.00;100855.50;4970718;28;20472;-69
2024/01/19 08:12:37;;;;;;;9.97;4.37;;;;;;;-3.57;100.00;100866.63;4972117;28;20467;-68
2024/01/19 08:15:04;;;;;;;10.87;4.53;;;;;;;-3.60;100.00;100874.13;4971607;28;20500;-69
2024/01/19 08:17:30;;;;;;;12.23;5.27;;;;;;;-3.58;100.00;100875.19;4969429;28;20264;-68
2024/01/19 08:19:57;;;;;;;10.90;5.10;;;;;;;-3.64;100.00;100877.28;4969041;28;20453;-71
2024/01/19 08:22:23;;;;;;;10.73;4.10;;;;;;;-3.67;100.00;100887.41;4971022;28;20457;-69
2024/01/19 08:24:50;;;;;;;37.27;14.73;;;;;;;-3.86;100.00;100883.38;4966840;28;20460;-69
2024/01/19 08:27:16;;;;;;;31.87;13.97;;;;;;;-3.67;100.00;100889.97;4968548;28;21046;-68
2024/01/19 08:29:46;;;;;;;15.47;4.17;;;;;;;-3.50;100.00;100880.16;4973007;28;20519;-69
2024/01/19 08:32:13;;;;;;;27.90;12.43;;;;;;;-3.31;100.00;100903.16;4969119;28;20501;-67
2024/01/19 08:34:42;;;;;;;32.80;13.30;;;;;;;-3.45;100.00;100909.00;4968481;28;20462;-68
2024/01/19 08:37:08;;;;;;;26.13;12.47;;;;;;;-3.47;100.00;100918.31;4959669;28;20476;-69
2024/01/19 08:39:35;;;;;;;8.47;4.00;;;;;;;-3.31;100.00;100921.28;4971358;28;20460;-66
2024/01/19 08:42:02;;;;;;;5.77;3.73;;;;;;;-3.07;100.00;100926.53;4970500;28;20701;-67
2024/01/19 08:44:28;;;;;;;8.67;4.63;;;;;;;-2.88;100.00;100928.03;4965213;28;20206;-67
2024/01/19 08:46:55;;;;;;;9.53;4.80;;;;;;;-2.94;100.00;100919.81;4969266;28;20217;-70
2024/01/19 08:49:21;;;;;;;29.33;12.63;;;;;;;-2.88;100.00;100933.22;4959929;28;20208;-70
2024/01/19 08:51:50;;;;;;;9.63;4.37;;;;;;;-3.03;100.00;100938.94;4967159;28;20225;-66
2024/01/19 08:54:17;;;;;;;10.40;5.60;;;;;;;-3.01;100.00;100945.13;4967680;28;20213;-69
2024/01/19 08:56:44;;;;;;;30.73;13.50;;;;;;;-3.11;100.00;100937.47;4961656;28;20197;-70
2024/01/19 08:59:22;;;;;;;26.80;12.30;;;;;;;-3.14;100.00;100939.81;4958857;28;20757;-69
2024/01/19 09:01:53;;;;;;;26.17;12.13;;;;;;;-3.21;100.00;100943.59;4968745;28;20997;-68
2024/01/19 09:04:20;;;;;;;8.47;4.90;;;;;;;-3.23;100.00;100950.34;4972263;28;20201;-71
2024/01/19 09:06:46;;;;;;;12.63;5.53;;;;;;;-3.23;100.00;100955.53;4957118;28;20632;-67
2024/01/19 09:09:13;;;;;;;9.97;4.27;;;;;;;-3.22;100.00;100953.06;4967942;28;20316;-69
2024/01/19 09:11:39;;;;;;;11.40;4.33;;;;;;;-3.05;100.00;100951.78;4964847;28;20225;-71
2024/01/19 09:14:09;;;;;;;14.27;5.27;;;;;;;-2.63;100.00;100961.88;4959231;28;20297;-71
2024/01/19 09:16:41;;;;;;;11.27;4.17;;;;;;;-2.39;100.00;100969.69;4966194;28;20225;-71
2024/01/19 09:19:07;;;;;;;11.80;4.77;;;;;;;-2.26;100.00;100965.50;4967832;28;20205;-71
2024/01/19 09:21:34;;;;;;;26.97;11.63;;;;;;;-2.15;100.00;100962.78;4962729;28;20733;-71
2024/01/19 09:24:00;;;;;;;14.57;5.07;;;;;;;-2.16;100.00;100973.94;4969302;28;20234;-74
2024/01/19 09:26:27;;;;;;;14.93;5.43;;;;;;;-1.99;100.00;100974.41;4969070;28;20221;-72
2024/01/19 09:28:53;;;;;;;9.17;5.40;;;;;;;-2.02;100.00;100971.53;4969107;28;20726;-69
2024/01/19 09:31:20;;;;;;;12.83;5.83;;;;;;;-2.01;100.00;100967.25;4969275;28;20385;-69
2024/01/19 09:33:47;;;;;;;18.20;5.63;;;;;;;-2.34;100.00;100961.44;4968125;28;20301;-69
2024/01/19 09:36:14;;;;;;;13.40;5.30;;;;;;;-2.38;100.00;100976.69;4964729;28;20213;-68
2024/01/19 09:38:41;;;;;;;15.13;5.20;;;;;;;-2.35;100.00;100989.88;4964458;28;20239;-71
2024/01/19 09:41:37;;;;;;;14.53;5.53;;;;;;;-2.41;100.00;100990.28;4970078;28;20226;-67
2024/01/19 09:44:07;;;;;;;11.03;4.87;;;;;;;-2.51;100.00;100995.59;4969534;28;21349;-66
2024/01/19 09:47:00;;;;;;;20.10;10.73;;;;;;;-2.34;100.00;101002.03;4966478;28;20235;-67
2024/01/19 09:49:48;;;;;;;21.80;11.03;;;;;;;-2.00;100.00;101008.94;4963597;28;20201;-66
2024/01/19 09:52:27;;;;;;;12.83;5.07;;;;;;;-1.73;100.00;101012.59;4967005;28;20794;-68
2024/01/19 09:54:56;;;;;;;8.00;4.17;;;;;;;-1.57;100.00;101022.41;4968708;28;20205;-68
2024/01/19 09:57:23;;;;;;;16.47;5.43;;;;;;;-1.44;100.00;101019.88;4964807;28;20203;-68
2024/01/19 09:59:49;;;;;;;18.10;6.07;;;;;;;-1.36;100.00;101020.41;4963777;28;20722;-68
2024/01/19 10:02:17;;;;;;;14.20;5.87;;;;;;;-1.38;100.00;101025.50;4969282;28;20227;-67
2024/01/19 10:04:44;;;;;;;15.00;5.90;;;;;;;-1.38;100.00;101028.09;4967723;28;20207;-65
2024/01/19 10:07:11;;;;;;;13.87;6.27;;;;;;;-1.31;100.00;101039.81;4962276;28;20694;-67
2024/01/19 10:09:37;;;;;;;17.00;6.47;;;;;;;-1.27;100.00;101032.34;4968351;28;20207;-66
2024/01/19 10:12:06;;;;;;;19.73;6.37;;;;;;;-1.17;100.00;101033.91;4968771;28;20254;-67
2024/01/19 10:14:32;;;;;;;15.57;7.03;;;;;;;-1.23;100.00;101040.34;4963250;28;20298;-65
2024/01/19 10:16:59;;;;;;;17.50;7.17;;;;;;;-1.17;100.00;101040.81;4967683;28;20208;-66
2024/01/19 10:19:27;;;;;;;16.30;6.27;;;;;;;-1.11;100.00;101049.03;4966111;28;20212;-67
2024/01/19 10:21:53;;;;;;;15.90;6.80;;;;;;;-1.15;100.00;101054.81;4967984;28;20314;-67
2024/01/19 10:24:20;;;;;;;16.90;7.07;;;;;;;-1.07;100.00;101051.94;4967121;28;20214;-65
2024/01/19 10:26:54;;;;;;;13.07;6.13;;;;;;;-0.86;100.00;101055.13;4967074;28;20863;-70
2024/01/19 10:29:21;;;;;;;17.13;7.00;;;;;;;-0.57;100.00;101054.53;4964064;28;20689;-70
2024/01/19 10:31:50;;;;;;;17.50;7.63;;;;;;;-0.25;100.00;101063.63;4966495;28;20319;-69
2024/01/19 10:34:17;;;;;;;15.03;6.20;;;;;;;0.14;100.00;101070.56;4964019;28;20209;-70
2024/01/19 10:36:46;;;;;;;15.57;7.63;;;;;;;0.50;100.00;101052.09;4966771;28;20204;-68
2024/01/19 10:39:16;;;;;;;14.60;7.20;;;;;;;0.92;100.00;101071.25;4968426;28;20206;-69
2024/01/19 10:41:43;;;;;;;17.50;7.80;;;;;;;1.31;100.00;101071.94;4967462;28;20785;-69
2024/01/19 10:44:15;;;;;;;17.10;7.90;;;;;;;1.52;100.00;101062.78;4968492;28;20209;-67
2024/01/19 10:46:41;;;;;;;16.80;7.80;;;;;;;1.72;100.00;101046.59;4968854;28;20224;-67
2024/01/19 10:49:10;;;;;;;13.57;7.27;;;;;;;1.76;100.00;101065.94;4968872;28;20233;-69
2024/01/19 10:51:42;;;;;;;15.43;7.23;;;;;;;1.69;100.00;101046.41;4964104;28;20283;-69
2024/01/19 10:54:15;;;;;;;14.93;6.60;;;;;;;1.70;100.00;101057.75;4967123;28;20202;-71
2024/01/19 10:56:44;;;;;;;14.93;6.93;;;;;;;1.85;100.00;101058.66;4969966;28;20482;-68
2024/01/19 10:59:13;;;;;;;12.20;6.47;;;;;;;1.82;100.00;101071.53;4965971;28;20208;-68
2024/01/19 11:01:40;;;;;;;16.63;6.80;;;;;;;1.83;100.00;101058.56;4963809;28;20347;-70
2024/01/19 11:04:09;;;;;;;10.67;6.07;;;;;;;2.01;100.00;101056.16;4968768;28;20291;-69
2024/01/19 11:06:36;;;;;;;14.40;6.40;;;;;;;2.05;100.00;101046.78;4968348;28;20198;-69
2024/01/19 11:09:06;;;;;;;11.63;6.07;;;;;;;1.97;100.00;101067.19;4963245;28;20619;-69
2024/01/19 11:11:38;;;;;;;11.83;5.70;;;;;;;1.81;100.00;101061.91;4966951;28;20317;-68
2024/01/19 11:14:07;;;;;;;13.17;6.13;;;;;;;1.77;100.00;101067.75;4970993;28;20225;-69